Terminal Aerodrome Forecast
Issued by NWS

Home | Current Version | Previous Version | Text Only | Print | Product List | Glossary On
Versions: 1 2 3 4 5 6 7 8 9 10 11 12 13 14 15 16 17 18 19
000
FTUS46 KLOX 260100 AAA
TAFPMD
TAF AMD
KPMD 260111Z 2601/2624 25012G22KT P6SM SCT080 BKN200
     FM260300 27026G34KT P6SM SCT250
     FM260600 26020G28KT P6SM SCT250
     FM261000 25018G25KT P6SM SCT250
     FM261400 28014KT P6SM SCT250
     FM261800 34009KT P6SM SCT250
     FM262100 31016G23KT P6SM SCT250=

USA.gov is the U.S. government's official web portal to all federal, state and local government web resources and services.